Terminal Aerodrome Forecast
Issued by NWS

Home | Current Version | Previous Version | Text Only | Print | Product List | Glossary On
Versions: 1 2 3 4 5 6 7 8 9 10 11 12 13
896
FTUS46 KSEW 081739
TAFBFI
TAF
KBFI 081739Z 0818/0918 04005KT P6SM BKN200 WS010/12035KT
     FM082300 05009KT P6SM BKN120 OVC200 WS010/13035KT
     FM090300 12008KT P6SM -SN SCT040 OVC060
     FM090500 14007KT 4SM -SN SCT030 OVC045
      TEMPO 0905/0907 1SM -SN SCT008 BKN030
     FM090700 14007KT 5SM -RASN BKN035 OVC050
     FM090900 14008KT P6SM -RA BKN030 OVC045=

USA.gov is the U.S. government's official web portal to all federal, state and local government web resources and services.